Time;durP1;ratioP1;P1;durP2;ratioP2;P2;SDS_P1;SDS_P2;PMS_P1;PMS_P2;Temp;Humidity;BMP_temperature;BMP_pressure;BME280_temperature;BME280_humidity;BME280_pressure;Samples;Min_cycle;Max_cycle;Signal;HPM_P1;HPM_P2
2023/03/03 00:00:23;;;;;;;66.43;26.33;;;;;;;;;;5025057;28;20052;-62
2023/03/03 00:02:49;;;;;;;64.00;29.00;;;;;;;;;;5057866;27;20070;-61
2023/03/03 00:05:17;;;;;;;68.27;27.47;;;;;;;;;;5040482;27;20050;-61
2023/03/03 00:07:47;;;;;;;59.60;24.50;;;;;;;;;;5095210;27;20130;-61
2023/03/03 00:10:14;;;;;;;61.90;25.47;;;;;;;;;;5043967;27;20348;-61
2023/03/03 00:12:49;;;;;;;61.97;25.53;;;;;;;;;;5106223;27;20045;-61
2023/03/03 00:15:17;;;;;;;57.37;23.80;;;;;;;;;;5075318;27;20315;-61
2023/03/03 00:17:43;;;;;;;72.37;25.30;;;;;;;;;;5060583;27;20041;-61
2023/03/03 00:20:27;;;;;;;55.07;23.87;;;;;;;;;;5111774;27;20053;-61
2023/03/03 00:22:54;;;;;;;55.80;22.17;;;;;;;;;;5048241;27;20652;-61
2023/03/03 00:25:34;;;;;;;56.77;21.77;;;;;;;;;;5077025;27;20053;-61
2023/03/03 00:28:07;;;;;;;55.53;22.50;;;;;;;;;;5111158;27;20396;-61
2023/03/03 00:30:33;;;;;;;;;;;;;;;;;;5112688;27;20513;-61
2023/03/03 00:32:59;;;;;;;49.97;23.10;;;;;;;;;;5091590;27;19921;-61
2023/03/03 00:35:26;;;;;;;58.20;23.70;;;;;;;;;;5082231;27;20054;-61
2023/03/03 00:37:55;;;;;;;52.10;22.47;;;;;;;;;;5067903;27;20119;-61
2023/03/03 00:40:22;;;;;;;56.23;23.07;;;;;;;;;;5110184;27;20043;-61
2023/03/03 00:42:53;;;;;;;45.00;20.60;;;;;;;;;;5056501;27;20729;-61
2023/03/03 00:45:30;;;;;;;53.57;22.97;;;;;;;;;;5077249;27;20128;-61
2023/03/03 00:47:56;;;;;;;47.43;21.60;;;;;;;;;;5104305;27;20316;-61
2023/03/03 00:50:30;;;;;;;47.57;21.17;;;;;;;;;;5033876;28;20811;-61
2023/03/03 00:53:16;;;;;;;49.37;20.90;;;;;;;;;;5056200;28;20517;-61
2023/03/03 00:55:42;;;;;;;46.00;22.03;;;;;;;;;;5059092;28;20041;-61
2023/03/03 00:58:08;;;;;;;50.77;21.30;;;;;;;;;;5077116;28;20191;-61
2023/03/03 01:00:35;;;;;;;46.47;20.80;;;;;;;;;;5108719;28;20034;-61
2023/03/03 01:03:03;;;;;;;46.03;20.47;;;;;;;;;;5019333;28;20045;-61
2023/03/03 01:05:29;;;;;;;48.13;20.10;;;;;;;;;;5062936;28;20808;-61
2023/03/03 01:07:55;;;;;;;44.57;20.80;;;;;;;;;;5098905;28;20319;-61
2023/03/03 01:10:22;;;;;;;44.30;21.10;;;;;;;;;;5039001;28;20114;-61
2023/03/03 01:12:48;;;;;;;43.37;19.03;;;;;;;;;;5059237;27;20058;-61
2023/03/03 01:15:15;;;;;;;44.53;20.67;;;;;;;;;;5084304;27;20145;-61
2023/03/03 01:17:41;;;;;;;42.67;19.63;;;;;;;;;;5097521;27;20289;-61
2023/03/03 01:20:08;;;;;;;45.13;20.47;;;;;;;;;;5045749;27;20042;-61
2023/03/03 01:22:34;;;;;;;40.50;19.53;;;;;;;;;;5112631;27;20052;-61
2023/03/03 01:25:02;;;;;;;40.80;18.20;;;;;;;;;;5068492;27;20096;-61
2023/03/03 01:27:28;;;;;;;49.30;20.93;;;;;;;;;;5074053;27;20053;-61
2023/03/03 01:29:55;;;;;;;44.13;19.57;;;;;;;;;;5015950;28;20061;-61
2023/03/03 01:32:21;;;;;;;47.93;19.60;;;;;;;;;;5113858;27;20498;-61
2023/03/03 01:34:48;;;;;;;45.00;21.30;;;;;;;;;;5048914;27;20043;-61
2023/03/03 01:37:14;;;;;;;41.53;20.13;;;;;;;;;;5077397;27;20099;-61
2023/03/03 01:39:39;;;;;;;45.60;20.70;;;;;;;;;;5065669;27;20045;-62
2023/03/03 01:42:06;;;;;;;46.40;19.57;;;;;;;;;;5114846;27;20047;-61
2023/03/03 01:44:33;;;;;;;49.47;21.00;;;;;;;;;;5032136;27;20042;-61
2023/03/03 01:47:09;;;;;;;41.83;18.90;;;;;;;;;;5085443;27;20077;-61
2023/03/03 01:49:41;;;;;;;41.67;20.20;;;;;;;;;;5067152;27;20053;-62
2023/03/03 01:52:13;;;;;;;41.67;19.67;;;;;;;;;;5076848;27;20052;-62
2023/03/03 01:54:41;;;;;;;41.17;19.17;;;;;;;;;;5109051;27;20042;-62
2023/03/03 01:57:12;;;;;;;45.47;21.60;;;;;;;;;;5072493;27;20502;-61
2023/03/03 01:59:41;;;;;;;44.13;21.87;;;;;;;;;;5065096;27;20045;-61
2023/03/03 02:02:08;;;;;;;43.23;19.63;;;;;;;;;;5072396;27;20046;-61
2023/03/03 02:04:34;;;;;;;50.40;21.77;;;;;;;;;;5054066;27;20042;-61
2023/03/03 02:07:06;;;;;;;45.80;20.33;;;;;;;;;;5023366;27;20497;-62
2023/03/03 02:09:32;;;;;;;50.10;22.13;;;;;;;;;;5037518;27;20132;-62
2023/03/03 02:12:00;;;;;;;53.70;22.53;;;;;;;;;;5033398;27;20049;-62
2023/03/03 02:14:26;;;;;;;53.53;22.60;;;;;;;;;;5054642;27;20047;-63
2023/03/03 02:16:53;;;;;;;47.50;22.17;;;;;;;;;;5132288;27;20055;-63
2023/03/03 02:19:30;;;;;;;51.00;21.43;;;;;;;;;;5037172;27;20527;-62
2023/03/03 02:21:56;;;;;;;49.17;21.47;;;;;;;;;;5008489;28;20049;-61
2023/03/03 02:24:27;;;;;;;46.17;19.80;;;;;;;;;;5026946;28;20508;-61
2023/03/03 02:26:53;;;;;;;50.87;21.37;;;;;;;;;;5028075;28;20528;-61
2023/03/03 02:29:19;;;;;;;47.87;21.97;;;;;;;;;;5027656;28;20065;-61
2023/03/03 02:31:45;;;;;;;57.80;23.83;;;;;;;;;;5027995;28;20640;-60
2023/03/03 02:34:11;;;;;;;54.97;21.03;;;;;;;;;;5027122;28;20182;-61
2023/03/03 02:36:38;;;;;;;51.33;21.77;;;;;;;;;;5024973;28;20050;-61
2023/03/03 02:39:10;;;;;;;50.20;21.70;;;;;;;;;;5007952;28;20120;-61
2023/03/03 02:41:39;;;;;;;62.00;22.43;;;;;;;;;;5008039;28;20566;-61
2023/03/03 02:44:08;;;;;;;62.57;23.27;;;;;;;;;;5008150;28;20131;-61
2023/03/03 02:46:37;;;;;;;63.70;23.37;;;;;;;;;;5008231;28;20050;-61
2023/03/03 02:49:04;;;;;;;65.47;25.30;;;;;;;;;;5025178;28;20046;-61
2023/03/03 02:51:30;;;;;;;56.77;22.27;;;;;;;;;;5027574;28;20048;-61
2023/03/03 02:53:56;;;;;;;70.93;24.53;;;;;;;;;;5026566;28;20111;-61
2023/03/03 02:56:22;;;;;;;83.70;24.87;;;;;;;;;;5027566;28;20053;-61
2023/03/03 02:58:48;;;;;;;89.13;26.43;;;;;;;;;;5026968;28;20052;-61
2023/03/03 03:01:14;;;;;;;91.40;27.03;;;;;;;;;;5027566;28;20426;-62
2023/03/03 03:03:41;;;;;;;72.17;23.60;;;;;;;;;;5009368;28;20041;-62
2023/03/03 03:06:07;;;;;;;61.20;23.87;;;;;;;;;;5007214;28;20421;-62
2023/03/03 03:08:33;;;;;;;109.20;30.73;;;;;;;;;;5007586;28;20103;-61
2023/03/03 03:10:59;;;;;;;78.57;28.20;;;;;;;;;;5013409;28;20053;-61
2023/03/03 03:13:25;;;;;;;85.43;27.00;;;;;;;;;;5027350;28;20409;-62
2023/03/03 03:15:51;;;;;;;91.10;28.83;;;;;;;;;;5027382;28;20052;-61
2023/03/03 03:18:18;;;;;;;84.83;26.40;;;;;;;;;;5010259;28;20050;-62
2023/03/03 03:20:44;;;;;;;186.73;34.50;;;;;;;;;;5019758;28;20052;-62
2023/03/03 03:23:10;;;;;;;84.40;26.10;;;;;;;;;;5026932;28;20042;-61
2023/03/03 03:25:44;;;;;;;93.60;27.97;;;;;;;;;;5027282;28;20056;-62
2023/03/03 03:28:10;;;;;;;126.88;29.60;;;;;;;;;;5019751;28;20093;-63
2023/03/03 03:30:36;;;;;;;120.43;29.50;;;;;;;;;;5020214;28;20142;-62
2023/03/03 03:33:02;;;;;;;213.53;39.40;;;;;;;;;;5027103;28;20042;-62
2023/03/03 03:35:28;;;;;;;120.57;27.90;;;;;;;;;;5026733;28;20045;-62
2023/03/03 03:37:54;;;;;;;106.57;28.80;;;;;;;;;;5027221;28;20045;-61
2023/03/03 03:40:21;;;;;;;130.33;28.60;;;;;;;;;;5027049;28;20137;-62
2023/03/03 03:42:47;;;;;;;349.67;45.63;;;;;;;;;;5026407;28;20062;-62
2023/03/03 03:45:14;;;;;;;122.40;28.67;;;;;;;;;;5022352;28;20098;-62
2023/03/03 03:47:41;;;;;;;96.10;24.10;;;;;;;;;;5026365;28;20052;-62
2023/03/03 03:50:07;;;;;;;130.80;28.77;;;;;;;;;;5026647;28;20041;-62
2023/03/03 03:52:33;;;;;;;91.63;21.67;;;;;;;;;;5026429;28;20045;-61
2023/03/03 03:54:59;;;;;;;99.60;24.07;;;;;;;;;;5026929;28;20045;-62
2023/03/03 03:57:25;;;;;;;90.40;23.77;;;;;;;;;;5026747;28;20056;-62
2023/03/03 03:59:51;;;;;;;97.07;24.90;;;;;;;;;;5025796;28;20120;-62
2023/03/03 04:02:18;;;;;;;101.33;25.37;;;;;;;;;;5026178;28;20481;-62
2023/03/03 04:04:43;;;;;;;124.00;27.93;;;;;;;;;;5026523;28;20531;-62
2023/03/03 04:07:10;;;;;;;100.40;24.67;;;;;;;;;;5025594;28;20085;-62
2023/03/03 04:09:36;;;;;;;121.23;26.83;;;;;;;;;;5026525;28;20098;-62
2023/03/03 04:12:02;;;;;;;87.40;24.57;;;;;;;;;;5026494;28;20049;-62
2023/03/03 04:14:28;;;;;;;108.17;24.00;;;;;;;;;;5017988;28;20042;-62
2023/03/03 04:16:54;;;;;;;130.00;25.87;;;;;;;;;;5005678;28;20574;-62
2023/03/03 04:19:20;;;;;;;102.27;22.43;;;;;;;;;;5011949;28;20045;-62
2023/03/03 04:21:46;;;;;;;137.80;24.47;;;;;;;;;;5007859;28;20095;-62
2023/03/03 04:24:12;;;;;;;111.97;24.00;;;;;;;;;;5005654;28;20054;-62
2023/03/03 04:26:38;;;;;;;161.23;28.90;;;;;;;;;;5005624;28;20065;-62
2023/03/03 04:29:04;;;;;;;208.10;31.60;;;;;;;;;;5005983;28;20099;-62
2023/03/03 04:31:31;;;;;;;119.10;24.07;;;;;;;;;;5018483;28;20042;-62
2023/03/03 04:33:57;;;;;;;102.23;23.30;;;;;;;;;;5011976;28;20056;-62
2023/03/03 04:36:23;;;;;;;110.17;23.37;;;;;;;;;;5016561;28;20042;-62
2023/03/03 04:38:49;;;;;;;211.23;32.93;;;;;;;;;;5014323;28;20445;-62
2023/03/03 04:41:16;;;;;;;138.13;26.37;;;;;;;;;;5024078;28;20049;-62
2023/03/03 04:43:42;;;;;;;169.47;28.57;;;;;;;;;;5006168;28;20060;-62
2023/03/03 04:46:08;;;;;;;104.47;24.77;;;;;;;;;;5006448;28;20046;-62
2023/03/03 04:48:34;;;;;;;167.90;28.20;;;;;;;;;;5005323;28;20102;-62
2023/03/03 04:51:00;;;;;;;106.93;25.50;;;;;;;;;;5005714;28;20046;-62
2023/03/03 04:53:26;;;;;;;193.67;31.50;;;;;;;;;;5006325;28;20562;-62
2023/03/03 04:55:52;;;;;;;106.77;24.20;;;;;;;;;;5005636;28;20157;-62
2023/03/03 04:58:18;;;;;;;275.07;34.87;;;;;;;;;;5025125;28;20106;-62
2023/03/03 05:00:45;;;;;;;119.77;25.83;;;;;;;;;;5026026;28;20391;-62
2023/03/03 05:03:12;;;;;;;97.17;22.13;;;;;;;;;;5025736;28;20497;-62
2023/03/03 05:05:39;;;;;;;109.60;22.27;;;;;;;;;;5025444;28;20053;-62
2023/03/03 05:08:05;;;;;;;123.50;25.17;;;;;;;;;;5025607;28;20442;-63
2023/03/03 05:10:31;;;;;;;95.37;22.07;;;;;;;;;;5014975;28;20049;-61
2023/03/03 05:12:57;;;;;;;117.67;23.70;;;;;;;;;;5073597;28;20532;-61
2023/03/03 05:15:23;;;;;;;98.20;21.27;;;;;;;;;;5021485;28;20037;-61
2023/03/03 05:17:52;;;;;;;119.47;23.93;;;;;;;;;;5025713;28;20080;-61
2023/03/03 05:20:18;;;;;;;60.63;16.80;;;;;;;;;;5024780;28;20133;-61
2023/03/03 05:22:44;;;;;;;77.37;20.13;;;;;;;;;;5025718;28;20428;-61
2023/03/03 05:25:11;;;;;;;127.10;22.23;;;;;;;;;;5025036;28;20579;-61
2023/03/03 05:27:37;;;;;;;98.17;21.03;;;;;;;;;;5010573;28;20463;-61
2023/03/03 05:30:03;;;;;;;171.40;28.80;;;;;;;;;;5017700;28;20140;-62
2023/03/03 05:32:29;;;;;;;73.17;19.03;;;;;;;;;;5012776;28;20091;-61
2023/03/03 05:34:55;;;;;;;94.37;22.30;;;;;;;;;;5005130;28;20042;-62
2023/03/03 05:37:23;;;;;;;136.80;26.07;;;;;;;;;;5016461;28;20501;-63
2023/03/03 05:39:49;;;;;;;147.63;26.03;;;;;;;;;;5007175;28;20111;-63
2023/03/03 05:42:15;;;;;;;273.80;34.93;;;;;;;;;;5008221;28;20530;-63
2023/03/03 05:44:41;;;;;;;120.80;23.87;;;;;;;;;;5005094;28;20050;-62
2023/03/03 05:47:07;;;;;;;126.43;26.13;;;;;;;;;;5006830;28;20046;-63
2023/03/03 05:49:33;;;;;;;89.23;21.43;;;;;;;;;;5006715;28;20082;-63
2023/03/03 05:51:59;;;;;;;82.30;21.07;;;;;;;;;;5073752;28;20050;-62
2023/03/03 05:54:25;;;;;;;70.83;19.57;;;;;;;;;;5005242;28;20054;-62
2023/03/03 05:56:51;;;;;;;109.97;21.10;;;;;;;;;;5004359;28;20416;-62
2023/03/03 05:59:18;;;;;;;96.37;21.63;;;;;;;;;;5005099;28;20132;-62
2023/03/03 06:01:44;;;;;;;186.20;29.03;;;;;;;;;;5008247;28;20141;-61
2023/03/03 06:04:10;;;;;;;86.93;20.40;;;;;;;;;;5008399;28;20404;-61
2023/03/03 06:06:36;;;;;;;142.83;26.17;;;;;;;;;;5006613;28;20045;-61
2023/03/03 06:09:02;;;;;;;159.70;26.70;;;;;;;;;;5006094;28;20042;-61
2023/03/03 06:11:28;;;;;;;100.67;21.27;;;;;;;;;;5006378;28;20472;-62
2023/03/03 06:13:54;;;;;;;347.77;39.20;;;;;;;;;;5005883;28;20125;-62
2023/03/03 06:16:20;;;;;;;97.37;20.33;;;;;;;;;;5006279;28;20588;-62
2023/03/03 06:18:46;;;;;;;117.60;20.90;;;;;;;;;;5006578;28;20053;-62
2023/03/03 06:21:13;;;;;;;213.10;28.63;;;;;;;;;;5013275;28;20049;-61
2023/03/03 06:23:38;;;;;;;65.77;16.30;;;;;;;;;;5006574;28;20546;-61
2023/03/03 06:26:05;;;;;;;96.93;17.90;;;;;;;;;;5006430;28;20337;-61
2023/03/03 06:28:31;;;;;;;60.13;16.03;;;;;;;;;;5006147;28;20054;-61
2023/03/03 06:30:57;;;;;;;79.37;15.93;;;;;;;;;;5019904;28;20126;-62
2023/03/03 06:33:23;;;;;;;57.90;14.33;;;;;;;;;;5090335;28;20110;-62
2023/03/03 06:35:50;;;;;;;67.53;15.33;;;;;;;;;;5014423;28;20050;-61
2023/03/03 06:38:17;;;;;;;57.50;14.13;;;;;;;;;;5018005;28;20056;-62
2023/03/03 06:40:43;;;;;;;69.37;16.07;;;;;;;;;;5024225;28;20042;-62
2023/03/03 06:43:09;;;;;;;69.97;16.13;;;;;;;;;;5023069;28;20073;-61
2023/03/03 06:45:35;;;;;;;57.93;16.63;;;;;;;;;;5009032;28;20046;-62
2023/03/03 06:48:01;;;;;;;64.10;15.83;;;;;;;;;;5024691;28;20145;-62
2023/03/03 06:50:27;;;;;;;94.53;18.23;;;;;;;;;;5024053;28;20128;-62
2023/03/03 06:53:02;;;;;;;67.27;16.47;;;;;;;;;;5025757;28;20137;-62
2023/03/03 06:55:28;;;;;;;90.43;19.00;;;;;;;;;;5024321;28;20046;-62
2023/03/03 06:57:56;;;;;;;63.43;15.73;;;;;;;;;;5026388;28;20053;-62
2023/03/03 07:00:25;;;;;;;71.53;16.40;;;;;;;;;;5012383;28;20045;-62
2023/03/03 07:03:18;;;;;;;97.83;16.90;;;;;;;;;;5018851;28;20057;-61
2023/03/03 07:05:44;;;;;;;59.13;15.30;;;;;;;;;;5022532;28;20046;-62
2023/03/03 07:08:30;;;;;;;100.80;16.80;;;;;;;;;;5012430;28;20085;-62
2023/03/03 07:10:58;;;;;;;61.73;15.20;;;;;;;;;;5025820;28;20088;-61
2023/03/03 07:13:26;;;;;;;74.83;15.80;;;;;;;;;;5026104;28;20478;-62
2023/03/03 07:15:55;;;;;;;63.73;13.63;;;;;;;;;;5026975;28;20087;-62
2023/03/03 07:18:36;;;;;;;49.20;12.43;;;;;;;;;;5012345;28;20431;-61
2023/03/03 07:21:19;;;;;;;56.43;11.93;;;;;;;;;;5005964;28;20077;-62
2023/03/03 07:23:45;;;;;;;84.72;14.55;;;;;;;;;;5015051;28;20042;-62
2023/03/03 07:26:13;;;;;;;49.07;11.07;;;;;;;;;;5013621;28;20447;-62
2023/03/03 07:28:43;;;;;;;63.67;12.23;;;;;;;;;;5022759;28;20057;-62
2023/03/03 07:31:26;;;;;;;50.93;13.10;;;;;;;;;;5022485;28;20072;-62
2023/03/03 07:33:53;;;;;;;57.05;11.95;;;;;;;;;;5021398;28;20189;-62
2023/03/03 07:36:25;;;;;;;51.60;12.60;;;;;;;;;;5024483;28;20053;-62
2023/03/03 07:38:57;;;;;;;62.70;11.50;;;;;;;;;;5025184;28;20045;-62
2023/03/03 07:41:23;;;;;;;78.70;12.97;;;;;;;;;;5025780;28;20045;-62
2023/03/03 07:43:53;;;;;;;97.97;14.10;;;;;;;;;;5012700;28;20417;-62
2023/03/03 07:46:49;;;;;;;53.83;12.87;;;;;;;;;;5006313;28;20565;-62
2023/03/03 07:49:34;;;;;;;184.43;21.67;;;;;;;;;;5010291;28;20053;-62
2023/03/03 07:52:01;;;;;;;54.43;12.00;;;;;;;;;;5005433;28;20121;-62
2023/03/03 07:54:27;;;;;;;65.10;12.20;;;;;;;;;;5005381;28;20045;-62
2023/03/03 07:56:55;;;;;;;92.27;12.83;;;;;;;;;;5006339;28;20042;-62
2023/03/03 07:59:22;;;;;;;68.47;12.10;;;;;;;;;;5009692;28;20124;-62
2023/03/03 08:01:51;;;;;;;64.43;13.30;;;;;;;;;;5025274;28;20094;-62
2023/03/03 08:04:17;;;;;;;58.70;12.07;;;;;;;;;;5025305;28;20377;-62
2023/03/03 08:06:48;;;;;;;55.40;11.03;;;;;;;;;;5025898;28;20092;-62
2023/03/03 08:09:17;;;;;;;26.87;11.03;;;;;;;;;;5025880;28;20524;-62
2023/03/03 08:11:47;;;;;;;53.77;12.33;;;;;;;;;;5014939;28;20072;-62
2023/03/03 08:14:15;;;;;;;45.83;11.10;;;;;;;;;;5006539;28;20050;-62
2023/03/03 08:16:41;;;;;;;59.30;11.33;;;;;;;;;;5005234;28;20081;-62
2023/03/03 08:19:07;;;;;;;32.50;10.27;;;;;;;;;;5010093;28;20049;-64
2023/03/03 08:21:34;;;;;;;34.93;10.57;;;;;;;;;;5025773;28;20045;-62
2023/03/03 08:24:00;;;;;;;39.90;10.07;;;;;;;;;;5017006;28;20258;-62
2023/03/03 08:26:27;;;;;;;63.57;11.63;;;;;;;;;;5006278;28;20042;-62
2023/03/03 08:28:54;;;;;;;62.80;12.00;;;;;;;;;;5005430;28;20493;-62
2023/03/03 08:31:20;;;;;;;31.20;10.30;;;;;;;;;;5015607;28;20049;-63
2023/03/03 08:33:46;;;;;;;48.50;12.17;;;;;;;;;;5025515;28;20038;-62
2023/03/03 08:36:13;;;;;;;100.27;17.40;;;;;;;;;;5025144;28;20424;-62
2023/03/03 08:38:39;;;;;;;35.90;11.60;;;;;;;;;;5019658;28;20081;-62
2023/03/03 08:41:05;;;;;;;21.27;9.27;;;;;;;;;;5021606;28;20041;-62
2023/03/03 08:43:31;;;;;;;16.90;9.17;;;;;;;;;;5005377;28;20046;-62
2023/03/03 08:45:59;;;;;;;20.37;10.90;;;;;;;;;;5005549;28;20046;-62
2023/03/03 08:48:26;;;;;;;25.50;9.93;;;;;;;;;;5011588;28;20045;-62
2023/03/03 08:50:52;;;;;;;31.30;9.50;;;;;;;;;;5025284;28;20046;-62
2023/03/03 08:53:18;;;;;;;23.63;8.97;;;;;;;;;;5023927;28;20049;-62
2023/03/03 08:55:45;;;;;;;26.13;9.03;;;;;;;;;;5006558;28;20048;-62
2023/03/03 08:58:11;;;;;;;13.83;8.43;;;;;;;;;;5002780;28;20138;-62
2023/03/03 09:00:37;;;;;;;15.53;8.60;;;;;;;;;;5003580;28;20037;-62
2023/03/03 09:03:06;;;;;;;18.97;8.00;;;;;;;;;;5003462;28;20510;-62
2023/03/03 09:05:32;;;;;;;13.87;7.17;;;;;;;;;;5003314;28;20050;-62
2023/03/03 09:07:59;;;;;;;13.77;7.07;;;;;;;;;;5002691;28;20085;-63
2023/03/03 09:10:30;;;;;;;12.40;6.80;;;;;;;;;;5003710;28;20042;-62
2023/03/03 09:13:00;;;;;;;20.53;6.40;;;;;;;;;;5020330;28;20095;-62
2023/03/03 09:15:30;;;;;;;10.80;5.47;;;;;;;;;;5024485;28;20119;-62
2023/03/03 09:18:10;;;;;;;10.00;5.50;;;;;;;;;;5024692;28;20045;-62
2023/03/03 09:20:38;;;;;;;9.83;4.83;;;;;;;;;;5024323;28;20045;-62
2023/03/03 09:23:22;;;;;;;9.63;5.07;;;;;;;;;;5007092;28;20099;-63
2023/03/03 09:25:49;;;;;;;13.47;6.23;;;;;;;;;;5004958;28;20507;-62
2023/03/03 09:28:21;;;;;;;12.07;7.00;;;;;;;;;;5004750;28;20516;-62
2023/03/03 09:30:49;;;;;;;11.23;6.33;;;;;;;;;;5005052;28;20057;-62
2023/03/03 09:33:27;;;;;;;11.40;6.33;;;;;;;;;;5004696;28;20057;-62
2023/03/03 09:36:16;;;;;;;9.80;6.23;;;;;;;;;;5008250;28;20164;-62
2023/03/03 09:38:44;;;;;;;11.70;5.17;;;;;;;;;;5021901;28;20053;-62
2023/03/03 09:41:10;;;;;;;9.07;5.50;;;;;;;;;;5028207;28;20046;-62
2023/03/03 09:43:55;;;;;;;12.17;6.33;;;;;;;;;;5028405;28;20445;-62
2023/03/03 09:46:36;;;;;;;14.70;6.00;;;;;;;;;;5096864;28;20046;-62
2023/03/03 09:49:26;;;;;;;10.07;6.07;;;;;;;;;;5028281;28;20095;-63
2023/03/03 09:52:01;;;;;;;8.10;4.87;;;;;;;;;;5027643;28;20053;-61
2023/03/03 09:54:37;;;;;;;9.17;5.17;;;;;;;;;;5007994;28;20057;-61
2023/03/03 09:57:09;;;;;;;9.67;5.43;;;;;;;;;;5008192;28;20042;-61
2023/03/03 09:59:56;;;;;;;9.10;5.40;;;;;;;;;;5007604;28;20054;-62
2023/03/03 10:02:24;;;;;;;13.67;5.83;;;;;;;;;;5027944;28;20050;-61
2023/03/03 10:04:53;;;;;;;9.73;5.50;;;;;;;;;;5007672;28;20046;-62
2023/03/03 10:07:36;;;;;;;10.93;5.50;;;;;;;;;;5024735;28;20056;-61
2023/03/03 10:10:16;;;;;;;12.67;5.97;;;;;;;;;;5027633;28;20509;-62
2023/03/03 10:12:48;;;;;;;10.83;5.93;;;;;;;;;;5027276;28;20406;-61
2023/03/03 10:15:21;;;;;;;11.70;5.97;;;;;;;;;;5096280;28;20058;-61
2023/03/03 10:17:51;;;;;;;11.90;6.53;;;;;;;;;;5027702;28;20053;-61
2023/03/03 10:20:32;;;;;;;13.27;6.73;;;;;;;;;;5024542;28;20048;-61
2023/03/03 10:23:22;;;;;;;12.37;6.30;;;;;;;;;;5007125;28;20060;-62
2023/03/03 10:25:53;;;;;;;13.23;6.57;;;;;;;;;;5007562;28;20193;-61
2023/03/03 10:28:29;;;;;;;12.73;6.23;;;;;;;;;;5007431;28;20049;-62
2023/03/03 10:31:04;;;;;;;14.37;6.87;;;;;;;;;;5007146;28;20410;-62
2023/03/03 10:33:30;;;;;;;10.97;6.10;;;;;;;;;;5006940;28;20177;-61
2023/03/03 10:36:15;;;;;;;12.97;6.33;;;;;;;;;;5007724;28;20086;-62
2023/03/03 10:39:01;;;;;;;8.23;4.60;;;;;;;;;;5007325;28;20046;-62
2023/03/03 10:41:27;;;;;;;11.20;5.37;;;;;;;;;;5007654;28;20216;-62
2023/03/03 10:44:00;;;;;;;10.20;4.80;;;;;;;;;;5007049;28;20181;-62
2023/03/03 10:46:45;;;;;;;8.27;5.20;;;;;;;;;;5006661;28;20079;-62
2023/03/03 10:49:18;;;;;;;9.10;5.07;;;;;;;;;;5006800;28;20058;-62
2023/03/03 10:51:55;;;;;;;7.82;4.60;;;;;;;;;;5006801;28;20054;-61
2023/03/03 10:54:42;;;;;;;7.00;4.37;;;;;;;;;;5007483;28;20149;-62
2023/03/03 10:57:15;;;;;;;9.07;4.13;;;;;;;;;;5007158;28;20360;-62
2023/03/03 10:59:49;;;;;;;7.55;4.70;;;;;;;;;;5007167;28;20526;-62
2023/03/03 11:02:21;;;;;;;9.90;4.23;;;;;;;;;;5006554;28;20049;-62
2023/03/03 11:05:14;;;;;;;10.53;4.83;;;;;;;;;;5025725;28;20064;-62
2023/03/03 11:07:51;;;;;;;7.80;3.90;;;;;;;;;;5018202;28;20482;-62
2023/03/03 11:10:37;;;;;;;6.37;3.60;;;;;;;;;;5006894;28;20046;-62
2023/03/03 11:13:09;;;;;;;9.50;3.30;;;;;;;;;;5006857;28;20053;-62
2023/03/03 11:15:50;;;;;;;10.80;4.13;;;;;;;;;;5006564;28;20050;-62
2023/03/03 11:18:16;;;;;;;7.23;3.37;;;;;;;;;;5015348;28;20567;-62
2023/03/03 11:20:49;;;;;;;6.73;3.27;;;;;;;;;;5026625;28;20045;-62
2023/03/03 11:23:31;;;;;;;7.63;3.43;;;;;;;;;;5021905;28;20058;-62
2023/03/03 11:26:15;;;;;;;5.67;3.00;;;;;;;;;;5013423;28;20513;-62
2023/03/03 11:28:48;;;;;;;6.67;2.90;;;;;;;;;;5006991;28;20579;-62
2023/03/03 11:31:33;;;;;;;4.32;2.83;;;;;;;;;;5018460;28;20049;-62
2023/03/03 11:34:18;;;;;;;4.33;2.90;;;;;;;;;;5018706;28;20496;-62
2023/03/03 11:36:50;;;;;;;11.37;2.60;;;;;;;;;;5025247;28;20095;-62
2023/03/03 11:39:17;;;;;;;5.40;2.77;;;;;;;;;;5026136;28;20050;-61
2023/03/03 11:42:01;;;;;;;4.73;2.37;;;;;;;;;;5025956;28;20417;-62
2023/03/03 11:44:46;;;;;;;8.40;2.50;;;;;;;;;;5025032;28;20052;-62
2023/03/03 11:47:12;;;;;;;8.60;2.23;;;;;;;;;;5012955;28;20497;-63
2023/03/03 11:49:57;;;;;;;4.93;2.17;;;;;;;;;;5011218;28;20084;-62
2023/03/03 11:52:32;;;;;;;4.97;2.33;;;;;;;;;;5015273;28;20050;-62
2023/03/03 11:55:04;;;;;;;6.13;2.13;;;;;;;;;;5015963;28;20053;-62
2023/03/03 11:57:46;;;;;;;4.70;2.40;;;;;;;;;;5015248;28;20053;-62
2023/03/03 12:00:24;;;;;;;5.37;1.80;;;;;;;;;;5012951;28;20095;-63
2023/03/03 12:03:00;;;;;;;7.33;3.17;;;;;;;;;;5014941;28;20045;-62
2023/03/03 12:05:45;;;;;;;6.10;1.80;;;;;;;;;;5014567;28;20053;-62
2023/03/03 12:08:14;;;;;;;4.83;1.93;;;;;;;;;;5014845;28;20485;-62
2023/03/03 12:10:51;;;;;;;4.30;1.67;;;;;;;;;;5015648;28;20124;-62
2023/03/03 12:13:24;;;;;;;4.70;1.70;;;;;;;;;;5019391;28;20409;-61
2023/03/03 12:15:50;;;;;;;4.03;1.30;;;;;;;;;;5013601;28;20037;-61
2023/03/03 12:18:32;;;;;;;4.93;1.47;;;;;;;;;;5015747;28;20054;-62
2023/03/03 12:21:01;;;;;;;3.20;1.50;;;;;;;;;;5013290;28;20120;-61
2023/03/03 12:23:39;;;;;;;3.70;1.37;;;;;;;;;;5012510;28;20088;-61
2023/03/03 12:26:08;;;;;;;3.50;1.47;;;;;;;;;;5013148;28;20165;-61
2023/03/03 12:28:40;;;;;;;3.43;1.60;;;;;;;;;;5013229;28;20056;-61
2023/03/03 12:31:25;;;;;;;4.20;1.53;;;;;;;;;;5081957;28;20437;-62
2023/03/03 12:34:14;;;;;;;6.80;1.90;;;;;;;;;;5013916;28;20060;-62
2023/03/03 12:36:40;;;;;;;4.80;1.60;;;;;;;;;;5016258;28;20048;-61
2023/03/03 12:39:25;;;;;;;4.33;1.23;;;;;;;;;;5016514;28;20041;-62
2023/03/03 12:42:00;;;;;;;6.43;1.90;;;;;;;;;;5012782;28;20048;-62
2023/03/03 12:44:26;;;;;;;3.37;1.10;;;;;;;;;;5013250;28;20599;-62
2023/03/03 12:47:11;;;;;;;2.67;0.97;;;;;;;;;;5010300;28;20049;-62
2023/03/03 12:49:40;;;;;;;2.77;1.03;;;;;;;;;;5013889;28;20038;-61
2023/03/03 12:52:21;;;;;;;3.63;1.10;;;;;;;;;;5018727;28;20045;-62
2023/03/03 12:54:53;;;;;;;4.73;1.30;;;;;;;;;;5011518;28;20497;-62
2023/03/03 12:57:19;;;;;;;3.20;1.10;;;;;;;;;;5023232;28;20160;-62
2023/03/03 12:59:50;;;;;;;4.20;1.07;;;;;;;;;;5024959;28;20057;-62
2023/03/03 13:02:35;;;;;;;5.57;1.83;;;;;;;;;;5023762;28;20046;-62
2023/03/03 13:05:10;;;;;;;2.40;1.20;;;;;;;;;;5023743;28;20084;-62
2023/03/03 13:07:55;;;;;;;7.10;1.67;;;;;;;;;;5024828;28;20045;-61
2023/03/03 13:10:31;;;;;;;7.93;1.50;;;;;;;;;;5008395;28;20060;-61
2023/03/03 13:13:15;;;;;;;3.80;1.30;;;;;;;;;;5015390;28;20429;-61
2023/03/03 13:15:45;;;;;;;7.03;1.40;;;;;;;;;;5016732;28;20050;-61
2023/03/03 13:18:30;;;;;;;4.73;1.13;;;;;;;;;;5019755;28;20041;-61
2023/03/03 13:21:04;;;;;;;4.43;1.03;;;;;;;;;;5011398;28;20042;-61
2023/03/03 13:23:45;;;;;;;3.90;1.30;;;;;;;;;;5011201;28;20118;-61
2023/03/03 13:26:16;;;;;;;1.90;1.00;;;;;;;;;;5020903;28;20057;-61
2023/03/03 13:28:50;;;;;;;4.50;1.13;;;;;;;;;;5026797;28;20056;-62
2023/03/03 13:31:20;;;;;;;1.80;0.90;;;;;;;;;;5026481;28;20058;-62
2023/03/03 13:33:53;;;;;;;4.30;1.53;;;;;;;;;;5026803;28;20084;-62
2023/03/03 13:36:20;;;;;;;4.50;1.23;;;;;;;;;;5027216;28;20045;-61
2023/03/03 13:38:51;;;;;;;4.77;1.03;;;;;;;;;;5027034;28;20533;-62
2023/03/03 13:41:26;;;;;;;2.90;1.10;;;;;;;;;;5024570;28;20045;-62
2023/03/03 13:43:56;;;;;;;5.00;1.00;;;;;;;;;;5007153;28;20513;-62
2023/03/03 13:46:34;;;;;;;3.47;0.80;;;;;;;;;;5009638;28;20065;-62
2023/03/03 13:49:16;;;;;;;3.93;0.73;;;;;;;;;;5008752;28;20057;-62
2023/03/03 13:52:03;;;;;;;5.37;0.87;;;;;;;;;;5012492;28;20311;-61
2023/03/03 13:54:41;;;;;;;2.37;0.80;;;;;;;;;;5018316;28;20109;-62
2023/03/03 13:57:07;;;;;;;2.63;1.10;;;;;;;;;;5017669;28;20074;-61
2023/03/03 13:59:44;;;;;;;2.27;0.60;;;;;;;;;;5008527;28;20045;-61
2023/03/03 14:02:30;;;;;;;2.50;0.80;;;;;;;;;;5008179;28;20078;-61
2023/03/03 14:05:01;;;;;;;4.40;1.00;;;;;;;;;;5007222;28;20728;-62
2023/03/03 14:07:30;;;;;;;2.67;0.83;;;;;;;;;;5008133;28;20120;-62
2023/03/03 14:10:05;;;;;;;3.57;1.20;;;;;;;;;;5007870;28;20046;-62
2023/03/03 14:12:31;;;;;;;4.83;1.00;;;;;;;;;;5008416;28;20050;-61
2023/03/03 14:15:09;;;;;;;5.53;1.00;;;;;;;;;;5007871;28;20065;-61
2023/03/03 14:17:54;;;;;;;4.83;0.80;;;;;;;;;;5007655;28;20145;-61
2023/03/03 14:20:25;;;;;;;3.10;0.80;;;;;;;;;;5007854;28;20099;-61
2023/03/03 14:22:56;;;;;;;3.60;1.10;;;;;;;;;;5008025;28;20052;-61
2023/03/03 14:25:22;;;;;;;5.23;0.90;;;;;;;;;;5024980;28;20164;-61
2023/03/03 14:27:48;;;;;;;4.37;1.20;;;;;;;;;;5027502;28;20053;-61
2023/03/03 14:30:20;;;;;;;2.63;0.80;;;;;;;;;;5027436;27;20406;-61
2023/03/03 14:32:58;;;;;;;3.73;0.83;;;;;;;;;;5026974;28;20493;-62
2023/03/03 14:35:28;;;;;;;5.17;0.93;;;;;;;;;;5027122;28;20056;-62
2023/03/03 14:38:00;;;;;;;3.77;1.07;;;;;;;;;;5025213;28;20049;-61
2023/03/03 14:40:33;;;;;;;2.10;0.90;;;;;;;;;;5007481;28;20042;-61
2023/03/03 14:43:06;;;;;;;3.95;0.90;;;;;;;;;;5008122;28;20053;-61